Time;durP1;ratioP1;P1;durP2;ratioP2;P2;SDS_P1;SDS_P2;PMS_P1;PMS_P2;Temp;Humidity;BMP_temperature;BMP_pressure;BME280_temperature;BME280_humidity;BME280_pressure;Samples;Min_cycle;Max_cycle;Signal;HPM_P1;HPM_P2
2023/09/24 00:00:10;;;;;;;3.50;1.88;;;19.20;56.70;;;;;;5010466;28;114242;-79
2023/09/24 00:02:38;;;;;;;3.03;1.85;;;19.20;56.40;;;;;;5028648;28;114071;-78
2023/09/24 00:05:09;;;;;;;4.35;2.15;;;19.30;56.00;;;;;;4992677;28;114853;-79
2023/09/24 00:07:36;;;;;;;2.72;1.75;;;19.20;56.00;;;;;;5010367;28;114607;-78
2023/09/24 00:10:04;;;;;;;2.95;1.70;;;19.30;56.20;;;;;;5028635;28;114710;-79
2023/09/24 00:12:31;;;;;;;4.53;1.67;;;19.30;56.10;;;;;;5010874;28;114529;-78
2023/09/24 00:14:58;;;;;;;3.08;1.50;;;19.30;55.70;;;;;;5027676;28;115573;-78
2023/09/24 00:17:25;;;;;;;3.15;1.90;;;19.30;56.10;;;;;;5027415;28;115146;-79
2023/09/24 00:19:53;;;;;;;3.50;1.70;;;19.30;56.10;;;;;;5009649;28;114114;-80
2023/09/24 00:22:20;;;;;;;2.83;1.55;;;19.30;55.90;;;;;;5010257;28;114276;-79
2023/09/24 00:24:49;;;;;;;2.90;1.45;;;19.30;56.00;;;;;;5027864;28;115062;-79
2023/09/24 00:27:16;;;;;;;2.47;1.50;;;19.30;56.10;;;;;;5027716;28;115355;-79
2023/09/24 00:29:43;;;;;;;2.65;1.60;;;19.30;56.10;;;;;;4992408;28;114332;-78
2023/09/24 00:32:10;;;;;;;2.83;1.45;;;19.30;55.60;;;;;;5028176;28;114274;-78
2023/09/24 00:34:38;;;;;;;3.20;1.50;;;19.30;55.80;;;;;;5009151;28;115022;-79
2023/09/24 00:37:06;;;;;;;3.30;1.40;;;19.30;55.30;;;;;;5027343;28;114900;-78
2023/09/24 00:39:33;;;;;;;2.65;1.42;;;19.30;55.80;;;;;;4993751;28;114528;-78
2023/09/24 00:42:00;;;;;;;1.92;1.00;;;19.30;55.60;;;;;;5010188;28;114132;-78
2023/09/24 00:44:28;;;;;;;2.80;1.50;;;19.30;55.90;;;;;;5009050;28;116721;-77
2023/09/24 00:46:56;;;;;;;2.60;1.38;;;19.30;55.60;;;;;;5027290;28;114674;-77
2023/09/24 00:49:23;;;;;;;2.35;1.48;;;19.30;55.90;;;;;;5028074;28;114036;-78
2023/09/24 00:51:50;;;;;;;3.70;1.40;;;19.30;55.60;;;;;;5010273;28;114423;-78
2023/09/24 00:54:17;;;;;;;3.15;1.50;;;19.30;55.80;;;;;;4991922;28;114775;-78
2023/09/24 00:56:44;;;;;;;2.83;1.50;;;19.30;55.70;;;;;;5026785;28;115908;-79
2023/09/24 00:59:11;;;;;;;2.22;1.38;;;19.30;55.90;;;;;;5008501;28;114326;-80
2023/09/24 01:01:39;;;;;;;2.38;1.50;;;19.30;55.70;;;;;;4993096;28;114262;-80
2023/09/24 01:04:07;;;;;;;2.72;1.40;;;19.30;55.70;;;;;;4976027;28;114974;-79
2023/09/24 01:06:35;;;;;;;4.32;1.80;;;19.30;55.90;;;;;;4992489;28;114590;-78
2023/09/24 01:09:08;;;;;;;2.83;1.55;;;19.30;55.10;;;;;;4993107;28;114202;-79
2023/09/24 01:11:37;;;;;;;2.97;1.20;;;19.30;55.50;;;;;;5026974;28;114302;-79
2023/09/24 01:14:05;;;;;;;1.92;1.25;;;19.30;55.80;;;;;;5008767;28;114944;-78
2023/09/24 01:16:32;;;;;;;2.80;1.50;;;19.30;55.80;;;;;;5026810;28;114617;-78
2023/09/24 01:19:01;;;;;;;2.58;1.40;;;19.30;55.70;;;;;;4992142;28;114486;-79
2023/09/24 01:21:28;;;;;;;2.97;1.50;;;19.30;55.70;;;;;;5027561;28;114136;-79
2023/09/24 01:23:57;;;;;;;2.85;1.40;;;19.30;55.90;;;;;;4992389;28;114813;-78
2023/09/24 01:26:27;;;;;;;2.78;1.77;;;19.30;55.90;;;;;;4992887;28;114695;-79
2023/09/24 01:28:54;;;;;;;2.88;1.65;;;19.30;55.50;;;;;;4976947;28;114073;-81
2023/09/24 01:31:21;;;;;;;2.60;1.77;;;19.30;55.60;;;;;;5027620;28;114247;-79
2023/09/24 01:33:48;;;;;;;2.67;1.50;;;19.30;55.70;;;;;;5026368;28;115578;-79
2023/09/24 01:36:19;;;;;;;2.78;1.45;;;19.30;55.70;;;;;;5008930;28;114716;-79
2023/09/24 01:38:47;;;;;;;2.75;1.65;;;19.30;55.80;;;;;;4976998;28;114190;-79
2023/09/24 01:41:15;;;;;;;3.28;1.80;;;19.30;55.70;;;;;;5027188;28;114316;-79
2023/09/24 01:43:42;;;;;;;3.05;1.40;;;19.30;55.70;;;;;;4990376;28;115063;-78
2023/09/24 01:46:13;;;;;;;2.90;1.55;;;19.30;55.90;;;;;;5007051;28;117037;-78
2023/09/24 01:48:43;;;;;;;3.00;1.30;;;19.30;56.00;;;;;;5009014;28;114244;-78
2023/09/24 01:51:11;;;;;;;3.50;1.85;;;19.30;56.10;;;;;;5008937;28;114311;-78
2023/09/24 01:53:39;;;;;;;3.17;1.65;;;19.30;55.70;;;;;;4991072;28;116896;-79
2023/09/24 01:56:07;;;;;;;3.58;1.83;;;19.30;55.80;;;;;;5025888;28;114763;-78
2023/09/24 01:58:38;;;;;;;4.50;1.95;;;19.30;55.70;;;;;;5008776;28;114183;-79
2023/09/24 02:01:09;;;;;;;3.65;1.50;;;19.30;55.70;;;;;;5009273;28;114367;-78
2023/09/24 02:03:36;;;;;;;3.38;1.85;;;19.20;56.00;;;;;;5025900;28;114937;-79
2023/09/24 02:06:06;;;;;;;2.80;1.75;;;19.20;55.70;;;;;;5007573;28;115134;-78
2023/09/24 02:08:34;;;;;;;4.53;1.80;;;19.20;55.80;;;;;;5008456;28;114333;-79
2023/09/24 02:11:01;;;;;;;3.85;2.00;;;19.20;56.00;;;;;;5026348;28;114248;-79
2023/09/24 02:13:28;;;;;;;3.20;1.73;;;19.20;55.90;;;;;;4990759;28;118788;-79
2023/09/24 02:15:56;;;;;;;3.75;1.70;;;19.20;56.00;;;;;;5007417;28;114611;-78
2023/09/24 02:18:25;;;;;;;2.83;1.58;;;19.20;56.00;;;;;;5007190;28;114771;-79
2023/09/24 02:20:53;;;;;;;3.47;1.88;;;19.30;56.00;;;;;;5026511;28;114280;-79
2023/09/24 02:23:23;;;;;;;4.65;2.05;;;19.30;55.70;;;;;;5007567;28;114944;-80
2023/09/24 02:25:50;;;;;;;4.65;1.67;;;19.20;55.60;;;;;;5008005;28;114982;-78
2023/09/24 02:28:18;;;;;;;2.75;1.58;;;19.30;55.80;;;;;;5008222;28;114405;-79
2023/09/24 02:30:46;;;;;;;5.05;1.92;;;19.20;55.90;;;;;;5026399;28;114028;-79
2023/09/24 02:33:14;;;;;;;3.03;1.90;;;19.30;55.50;;;;;;5007245;28;115379;-79
2023/09/24 02:35:41;;;;;;;4.20;1.77;;;19.20;55.20;;;;;;5007159;28;114664;-79
2023/09/24 02:38:09;;;;;;;2.72;1.75;;;19.30;55.50;;;;;;5008481;28;114312;-78
2023/09/24 02:40:38;;;;;;;3.05;1.80;;;19.20;55.50;;;;;;5008496;28;114611;-79
2023/09/24 02:43:06;;;;;;;4.22;1.73;;;19.20;55.70;;;;;;4990917;28;115202;-79
2023/09/24 02:45:33;;;;;;;4.22;1.98;;;19.10;55.50;;;;;;4974563;28;114555;-80
2023/09/24 02:48:04;;;;;;;4.28;2.08;;;19.10;55.40;;;;;;5008381;28;114390;-79
2023/09/24 02:50:31;;;;;;;3.78;1.80;;;19.10;55.40;;;;;;5009172;28;114228;-79
2023/09/24 02:53:00;;;;;;;4.15;1.95;;;19.00;55.70;;;;;;5007187;28;118255;-79
2023/09/24 02:55:28;;;;;;;3.13;1.80;;;19.00;55.60;;;;;;5007671;28;114705;-79
2023/09/24 02:57:55;;;;;;;4.90;2.53;;;19.10;55.60;;;;;;5007899;28;114197;-79
2023/09/24 03:00:32;;;;;;;3.42;2.25;;;19.00;54.90;;;;;;5008256;28;114151;-78
2023/09/24 03:03:00;;;;;;;4.25;1.90;;;19.00;54.90;;;;;;5007183;28;114960;-80
2023/09/24 03:05:28;;;;;;;3.83;1.88;;;19.00;55.60;;;;;;5007200;28;114853;-78
2023/09/24 03:07:59;;;;;;;3.03;1.90;;;19.00;55.50;;;;;;5008040;28;114141;-79
2023/09/24 03:10:35;;;;;;;3.75;1.92;;;19.00;55.80;;;;;;4992316;28;114214;-78
2023/09/24 03:13:04;;;;;;;4.13;2.42;;;19.00;55.30;;;;;;5025178;28;115117;-78
2023/09/24 03:15:33;;;;;;;3.20;1.85;;;19.00;54.90;;;;;;5025457;28;114606;-78
2023/09/24 03:18:00;;;;;;;3.20;1.67;;;19.00;55.40;;;;;;5025813;28;114281;-79
2023/09/24 03:20:28;;;;;;;4.03;2.00;;;19.00;55.50;;;;;;5008322;27;114400;-79
2023/09/24 03:23:01;;;;;;;4.50;2.00;;;18.90;55.00;;;;;;5027416;28;115458;-79
2023/09/24 03:25:28;;;;;;;5.85;2.17;;;18.80;55.10;;;;;;5011768;28;114871;-79
2023/09/24 03:27:57;;;;;;;3.20;1.90;;;18.80;54.80;;;;;;5011591;28;114206;-79
2023/09/24 03:30:24;;;;;;;3.90;2.00;;;18.80;55.20;;;;;;5011440;28;114146;-79
2023/09/24 03:32:53;;;;;;;3.03;1.88;;;18.80;55.50;;;;;;4993943;28;114866;-78
2023/09/24 03:35:25;;;;;;;3.60;1.85;;;18.80;55.40;;;;;;4992669;28;115183;-78
2023/09/24 03:37:53;;;;;;;4.78;2.22;;;18.80;55.50;;;;;;4995060;28;114448;-78
2023/09/24 03:40:24;;;;;;;3.00;1.60;;;18.80;54.90;;;;;;5011515;28;114400;-79
2023/09/24 03:42:51;;;;;;;4.03;2.00;;;18.80;55.40;;;;;;4993304;28;117935;-79
2023/09/24 03:45:19;;;;;;;3.10;1.80;;;18.80;55.00;;;;;;4993544;28;114818;-78
2023/09/24 03:47:46;;;;;;;3.15;2.03;;;18.80;55.20;;;;;;4994453;28;114257;-79
2023/09/24 03:50:16;;;;;;;4.75;2.08;;;18.90;54.90;;;;;;5029087;28;114333;-79
2023/09/24 03:52:45;;;;;;;3.75;2.08;;;18.80;55.10;;;;;;4993770;28;114998;-78
2023/09/24 03:55:13;;;;;;;3.30;1.88;;;18.80;55.10;;;;;;5009804;28;115827;-78
2023/09/24 03:57:40;;;;;;;3.47;1.80;;;18.80;54.60;;;;;;5027447;28;114288;-79
2023/09/24 04:00:18;;;;;;;2.78;2.10;;;18.80;54.90;;;;;;5028664;28;114025;-78
2023/09/24 04:02:49;;;;;;;3.97;1.90;;;18.80;54.30;;;;;;5027730;28;114883;-77
2023/09/24 04:05:19;;;;;;;3.38;1.73;;;18.70;55.10;;;;;;5027709;28;114700;-79
2023/09/24 04:07:49;;;;;;;3.85;1.98;;;18.80;55.40;;;;;;5010393;28;114562;-78
2023/09/24 04:10:21;;;;;;;4.78;1.88;;;18.70;54.30;;;;;;4994390;28;114235;-78
2023/09/24 04:12:52;;;;;;;4.47;2.72;;;18.80;54.80;;;;;;5008979;28;114903;-79
2023/09/24 04:15:21;;;;;;;3.50;1.73;;;18.70;54.10;;;;;;4993684;28;115015;-78
2023/09/24 04:17:49;;;;;;;4.68;2.20;;;18.70;55.20;;;;;;5027941;28;114736;-79
2023/09/24 04:20:20;;;;;;;4.47;1.95;;;18.70;55.20;;;;;;5028028;28;114480;-79
2023/09/24 04:22:47;;;;;;;3.80;1.63;;;18.80;55.30;;;;;;4991893;28;117061;-79
2023/09/24 04:25:21;;;;;;;4.05;2.33;;;18.70;55.20;;;;;;4992705;28;114622;-79
2023/09/24 04:27:48;;;;;;;5.10;2.38;;;18.70;54.70;;;;;;4995257;28;114247;-77
2023/09/24 04:30:16;;;;;;;3.75;2.65;;;18.70;55.20;;;;;;5010965;28;114359;-77
2023/09/24 04:32:44;;;;;;;3.22;2.00;;;18.70;55.10;;;;;;5008362;28;115885;-78
2023/09/24 04:35:12;;;;;;;4.03;2.60;;;18.70;55.50;;;;;;5027039;28;114578;-78
2023/09/24 04:37:43;;;;;;;6.28;2.00;;;18.60;55.00;;;;;;5009410;28;114231;-78
2023/09/24 04:40:14;;;;;;;3.28;1.88;;;18.70;55.70;;;;;;5009375;28;114298;-78
2023/09/24 04:42:42;;;;;;;2.92;1.70;;;18.60;55.60;;;;;;5027140;28;115017;-78
2023/09/24 04:45:10;;;;;;;4.75;2.50;;;18.60;55.90;;;;;;5025998;28;114756;-78
2023/09/24 04:47:38;;;;;;;4.80;2.00;;;18.60;55.60;;;;;;5010039;28;114589;-78
2023/09/24 04:50:06;;;;;;;4.35;2.50;;;18.60;55.70;;;;;;5027756;28;114340;-78
2023/09/24 04:52:34;;;;;;;5.38;2.50;;;18.50;55.20;;;;;;5026740;28;115490;-78
2023/09/24 04:55:01;;;;;;;3.28;1.83;;;18.60;55.60;;;;;;5027148;28;114631;-79
2023/09/24 04:57:28;;;;;;;3.42;2.15;;;18.60;55.70;;;;;;5009647;28;114303;-79
2023/09/24 04:59:55;;;;;;;3.92;2.17;;;18.60;55.60;;;;;;4993222;28;114418;-79
2023/09/24 05:02:23;;;;;;;3.53;1.75;;;18.70;55.30;;;;;;5008328;28;114988;-79
2023/09/24 05:04:50;;;;;;;5.47;2.30;;;18.70;55.80;;;;;;5026307;28;114557;-78
2023/09/24 05:07:18;;;;;;;4.80;2.40;;;18.80;55.20;;;;;;5027288;28;114208;-79
2023/09/24 05:09:45;;;;;;;5.03;2.20;;;18.70;55.10;;;;;;5027560;28;114095;-78
2023/09/24 05:12:13;;;;;;;6.57;2.33;;;18.60;55.50;;;;;;5025594;28;115215;-78
2023/09/24 05:14:40;;;;;;;3.97;2.25;;;18.60;55.30;;;;;;4991970;28;114853;-79
2023/09/24 05:17:07;;;;;;;3.20;1.98;;;18.60;55.50;;;;;;5026832;28;114218;-79
2023/09/24 05:19:34;;;;;;;11.15;3.70;;;18.60;55.50;;;;;;5027256;28;114438;-79
2023/09/24 05:22:01;;;;;;;6.03;2.70;;;18.60;54.60;;;;;;5026335;28;115077;-79
2023/09/24 05:24:30;;;;;;;5.05;2.33;;;18.50;55.40;;;;;;5026087;28;114579;-78
2023/09/24 05:26:57;;;;;;;5.97;3.28;;;18.50;55.70;;;;;;4975170;28;114314;-79
2023/09/24 05:29:25;;;;;;;4.55;2.17;;;18.50;55.10;;;;;;5027110;28;114287;-79
2023/09/24 05:31:52;;;;;;;3.83;1.90;;;18.40;55.90;;;;;;5025921;28;114837;-78
2023/09/24 05:34:19;;;;;;;5.70;2.75;;;18.40;56.20;;;;;;5025977;28;114696;-79
2023/09/24 05:36:46;;;;;;;4.57;3.03;;;18.50;55.70;;;;;;5008774;28;114197;-78
2023/09/24 05:39:13;;;;;;;3.90;2.45;;;18.40;55.50;;;;;;5027529;28;114067;-78
2023/09/24 05:41:40;;;;;;;4.85;2.50;;;18.30;55.50;;;;;;5026195;28;117501;-79
2023/09/24 05:44:07;;;;;;;4.45;2.90;;;18.40;55.60;;;;;;5008144;28;114718;-79
2023/09/24 05:46:34;;;;;;;5.07;3.17;;;18.50;55.50;;;;;;5008966;28;114185;-78
2023/09/24 05:49:02;;;;;;;5.32;3.40;;;18.50;54.90;;;;;;4992702;28;114248;-80
2023/09/24 05:51:29;;;;;;;6.53;3.33;;;18.60;54.70;;;;;;4991109;28;118958;-79
2023/09/24 05:53:56;;;;;;;5.50;3.50;;;18.60;54.70;;;;;;5026179;28;114795;-79
2023/09/24 05:56:24;;;;;;;4.05;3.05;;;18.60;54.40;;;;;;5027068;28;114149;-79
2023/09/24 05:58:51;;;;;;;5.60;3.33;;;18.60;54.40;;;;;;5026988;28;114290;-78
2023/09/24 06:01:18;;;;;;;4.47;3.33;;;18.70;54.00;;;;;;5008277;28;115029;-77
2023/09/24 06:03:45;;;;;;;4.43;3.17;;;18.60;54.40;;;;;;5007810;28;114761;-78
2023/09/24 06:06:13;;;;;;;4.97;3.08;;;18.50;55.10;;;;;;4975470;28;114382;-79
2023/09/24 06:08:40;;;;;;;4.85;3.25;;;18.60;55.10;;;;;;4991510;28;114763;-80
2023/09/24 06:11:08;;;;;;;5.10;3.25;;;18.60;54.40;;;;;;5007974;28;115063;-78
2023/09/24 06:13:35;;;;;;;5.45;3.33;;;18.60;54.50;;;;;;5024787;28;115235;-80
2023/09/24 06:16:02;;;;;;;4.72;3.22;;;18.50;54.30;;;;;;5025986;28;114196;-79
2023/09/24 06:18:29;;;;;;;6.25;3.63;;;18.40;55.00;;;;;;5024979;28;114676;-78
2023/09/24 06:20:58;;;;;;;6.30;3.63;;;18.30;55.00;;;;;;5025290;28;114894;-79
2023/09/24 06:23:25;;;;;;;5.40;3.28;;;18.30;54.90;;;;;;4991122;28;114932;-79
2023/09/24 06:25:56;;;;;;;6.78;3.40;;;18.30;55.40;;;;;;4991639;28;114090;-81
2023/09/24 06:28:24;;;;;;;6.07;4.05;;;18.30;55.20;;;;;;4991252;28;114700;-79
2023/09/24 06:31:01;;;;;;;5.35;2.90;;;18.40;54.20;;;;;;5024055;28;115107;-79
2023/09/24 06:33:28;;;;;;;5.07;3.47;;;18.40;55.30;;;;;;5025633;28;114878;-78
2023/09/24 06:35:56;;;;;;;8.18;3.50;;;18.30;55.50;;;;;;5026218;28;114313;-80
2023/09/24 06:38:23;;;;;;;6.03;3.45;;;18.30;54.90;;;;;;5025681;28;114384;-80
2023/09/24 06:40:58;;;;;;;5.05;3.35;;;18.20;55.00;;;;;;4990098;28;115132;-78
2023/09/24 06:43:26;;;;;;;4.80;3.58;;;18.20;55.10;;;;;;5025205;28;114706;-80
2023/09/24 06:45:54;;;;;;;4.88;3.78;;;18.10;55.30;;;;;;5008189;28;114232;-79
2023/09/24 06:48:25;;;;;;;7.90;3.13;;;18.10;54.90;;;;;;5007640;28;114514;-78
2023/09/24 06:50:55;;;;;;;5.10;4.03;;;18.10;55.90;;;;;;5024043;28;115068;-79
2023/09/24 06:53:23;;;;;;;6.75;4.95;;;18.20;55.20;;;;;;4990981;28;114739;-79
2023/09/24 06:55:50;;;;;;;6.88;4.00;;;18.20;54.80;;;;;;5009075;27;114084;-79
2023/09/24 06:58:18;;;;;;;4.88;3.13;;;18.10;55.00;;;;;;5011912;28;114381;-78
2023/09/24 07:00:45;;;;;;;5.95;3.22;;;18.20;55.50;;;;;;5010714;28;115055;-78
2023/09/24 07:03:12;;;;;;;4.43;2.97;;;18.20;55.60;;;;;;5028067;28;115219;-77
2023/09/24 07:05:39;;;;;;;4.78;3.88;;;18.20;55.40;;;;;;4994077;28;114226;-78
2023/09/24 07:08:06;;;;;;;4.65;2.65;;;18.20;54.90;;;;;;5028924;28;114232;-77
2023/09/24 07:10:33;;;;;;;4.53;3.10;;;18.20;55.60;;;;;;4993781;28;114969;-78
2023/09/24 07:13:03;;;;;;;5.53;3.38;;;18.10;55.90;;;;;;5027848;28;115741;-79
2023/09/24 07:15:30;;;;;;;6.07;3.25;;;18.20;55.10;;;;;;5029119;28;114333;-78
2023/09/24 07:17:57;;;;;;;6.00;4.15;;;18.20;55.30;;;;;;5010062;28;114354;-79
2023/09/24 07:20:24;;;;;;;5.00;3.30;;;18.20;54.30;;;;;;5027721;28;116118;-78
2023/09/24 07:22:51;;;;;;;4.88;3.60;;;18.00;55.20;;;;;;4993697;28;115339;-79
2023/09/24 07:25:19;;;;;;;5.07;2.80;;;18.00;55.50;;;;;;5010907;28;115115;-79
2023/09/24 07:27:46;;;;;;;6.50;4.03;;;18.10;55.50;;;;;;5010245;28;114430;-78
2023/09/24 07:30:14;;;;;;;4.65;2.90;;;18.10;55.20;;;;;;5027404;28;115250;-79
2023/09/24 07:32:41;;;;;;;5.20;3.50;;;18.20;55.70;;;;;;5010041;28;114663;-79
2023/09/24 07:35:10;;;;;;;4.15;2.90;;;18.20;55.20;;;;;;5029014;28;114263;-78
2023/09/24 07:37:39;;;;;;;5.65;3.03;;;18.20;55.60;;;;;;5011207;28;114426;-78
2023/09/24 07:40:07;;;;;;;4.25;2.85;;;18.30;55.50;;;;;;5027753;28;115516;-78
2023/09/24 07:42:51;;;;;;;5.25;3.35;;;18.30;55.40;;;;;;5012502;28;114726;-80
2023/09/24 07:45:18;;;;;;;4.65;3.15;;;18.40;55.10;;;;;;5010980;28;114408;-79
2023/09/24 07:47:48;;;;;;;5.28;2.95;;;18.30;55.00;;;;;;4994394;28;114482;-80
2023/09/24 07:50:16;;;;;;;5.20;3.65;;;18.40;55.50;;;;;;4976975;28;115146;-79
2023/09/24 07:52:43;;;;;;;5.65;3.17;;;18.50;54.50;;;;;;5009941;28;114742;-79
2023/09/24 07:55:11;;;;;;;6.57;3.30;;;18.50;54.60;;;;;;5010185;28;114432;-79
2023/09/24 07:57:38;;;;;;;5.57;3.83;;;18.50;54.90;;;;;;4993550;28;114605;-79
2023/09/24 08:00:06;;;;;;;4.15;2.90;;;18.40;54.50;;;;;;5027711;28;115162;-78
2023/09/24 08:02:37;;;;;;;6.03;3.63;;;18.40;54.90;;;;;;5027045;28;115136;-79
2023/09/24 08:05:08;;;;;;;5.13;3.22;;;18.30;54.80;;;;;;5028269;28;114059;-78
2023/09/24 08:07:36;;;;;;;4.65;2.92;;;18.30;55.00;;;;;;5027966;27;114090;-79
2023/09/24 08:10:03;;;;;;;4.90;3.08;;;18.30;55.10;;;;;;5027357;28;115027;-78
2023/09/24 08:12:30;;;;;;;5.75;4.30;;;18.40;55.10;;;;;;5027595;28;114648;-79
2023/09/24 08:14:57;;;;;;;6.15;3.88;;;18.50;54.40;;;;;;5028219;28;114135;-78
2023/09/24 08:17:25;;;;;;;7.05;4.38;;;18.50;54.50;;;;;;4993420;28;114387;-78
2023/09/24 08:19:52;;;;;;;7.18;4.40;;;18.40;54.50;;;;;;5008674;28;114955;-79
2023/09/24 08:22:21;;;;;;;5.03;3.50;;;18.40;54.60;;;;;;5027745;28;114730;-79
2023/09/24 08:24:48;;;;;;;4.95;3.22;;;18.40;54.80;;;;;;5014567;28;114106;-79
2023/09/24 08:27:15;;;;;;;5.57;3.65;;;18.40;55.10;;;;;;5010049;28;114722;-78
2023/09/24 08:29:43;;;;;;;4.75;3.30;;;18.50;54.90;;;;;;5027516;28;114927;-79
2023/09/24 08:32:10;;;;;;;4.75;3.97;;;18.60;54.80;;;;;;5009032;28;115988;-79
2023/09/24 08:34:37;;;;;;;6.68;4.50;;;18.70;54.60;;;;;;5010826;28;114078;-79
2023/09/24 08:37:05;;;;;;;6.18;3.85;;;18.70;54.40;;;;;;5027341;28;114706;-79
2023/09/24 08:39:32;;;;;;;6.68;4.13;;;18.60;54.40;;;;;;4960107;28;118154;-79
2023/09/24 08:41:59;;;;;;;5.13;3.65;;;18.60;54.40;;;;;;4993005;28;114668;-78
2023/09/24 08:44:26;;;;;;;6.32;3.83;;;18.60;54.70;;;;;;4977323;28;114581;-79
2023/09/24 08:46:53;;;;;;;5.32;3.88;;;18.70;54.70;;;;;;4960375;28;114555;-78
2023/09/24 08:49:20;;;;;;;7.20;4.20;;;18.80;54.40;;;;;;5009100;28;114978;-79
2023/09/24 08:51:48;;;;;;;5.68;4.32;;;18.70;54.10;;;;;;5009026;28;114669;-79
2023/09/24 08:54:15;;;;;;;6.00;3.92;;;18.70;54.10;;;;;;4992604;28;114471;-79
2023/09/24 08:56:42;;;;;;;6.50;4.70;;;18.70;54.30;;;;;;5010135;28;114264;-79
2023/09/24 08:59:10;;;;;;;5.53;4.07;;;18.70;53.90;;;;;;5026732;28;114815;-79
2023/09/24 09:01:37;;;;;;;6.70;4.10;;;18.60;53.90;;;;;;4992774;28;114619;-79
2023/09/24 09:04:04;;;;;;;8.57;4.90;;;18.40;54.50;;;;;;5027479;28;114512;-78
2023/09/24 09:06:33;;;;;;;7.30;4.40;;;18.40;54.20;;;;;;5026655;28;114275;-79
2023/09/24 09:09:03;;;;;;;7.68;4.90;;;18.50;54.20;;;;;;4991736;28;115981;-78
2023/09/24 09:11:40;;;;;;;5.90;3.70;;;18.40;54.10;;;;;;5009397;28;114669;-79
2023/09/24 09:14:09;;;;;;;6.40;5.07;;;18.40;54.50;;;;;;5010031;28;114074;-79
2023/09/24 09:16:59;;;;;;;6.32;4.30;;;18.40;53.90;;;;;;5009669;28;114437;-79
2023/09/24 09:19:28;;;;;;;6.30;4.07;;;18.40;54.30;;;;;;5012821;27;115501;-78
2023/09/24 09:21:55;;;;;;;6.30;4.70;;;18.30;54.60;;;;;;5026448;28;114646;-79
2023/09/24 09:24:25;;;;;;;4.78;3.67;;;18.30;54.50;;;;;;5009961;28;114402;-79
2023/09/24 09:26:54;;;;;;;6.45;4.38;;;18.50;54.60;;;;;;5027707;28;114250;-80
2023/09/24 09:29:22;;;;;;;6.40;4.45;;;18.50;54.20;;;;;;5025778;28;116838;-79
2023/09/24 09:31:50;;;;;;;7.05;4.85;;;18.60;53.80;;;;;;5028615;28;114580;-78
2023/09/24 09:34:17;;;;;;;4.88;3.60;;;18.50;54.20;;;;;;5009170;28;114015;-79
2023/09/24 09:36:44;;;;;;;5.32;3.75;;;18.60;54.30;;;;;;5027152;28;114048;-79
2023/09/24 09:39:12;;;;;;;6.43;4.20;;;18.70;54.20;;;;;;5025985;28;114967;-79
2023/09/24 09:41:40;;;;;;;5.88;4.47;;;18.70;54.10;;;;;;5025924;28;114725;-78
2023/09/24 09:44:07;;;;;;;5.43;3.50;;;18.80;53.80;;;;;;5026822;28;114172;-79
2023/09/24 09:46:35;;;;;;;5.97;4.97;;;18.90;53.60;;;;;;5026825;28;114394;-79
2023/09/24 09:49:07;;;;;;;7.63;4.72;;;19.00;53.00;;;;;;5008069;28;116049;-78
2023/09/24 09:51:47;;;;;;;10.07;4.55;;;18.80;53.30;;;;;;5008973;28;116547;-77
2023/09/24 09:54:15;;;;;;;6.95;5.03;;;18.80;53.40;;;;;;5026866;28;114267;-79
2023/09/24 09:56:42;;;;;;;6.38;4.30;;;18.70;53.70;;;;;;5008809;28;114104;-79
2023/09/24 09:59:10;;;;;;;6.90;4.68;;;18.60;53.90;;;;;;5007185;28;114994;-80
2023/09/24 10:01:37;;;;;;;7.43;4.35;;;18.50;54.00;;;;;;5008061;28;114799;-79
2023/09/24 10:04:06;;;;;;;8.02;4.18;;;18.50;54.10;;;;;;5008801;28;114259;-79
2023/09/24 10:06:35;;;;;;;6.68;4.53;;;18.50;53.70;;;;;;5025869;28;114363;-79
2023/09/24 10:09:17;;;;;;;5.93;4.50;;;18.30;54.20;;;;;;4991413;28;115105;-78
2023/09/24 10:11:44;;;;;;;8.05;5.25;;;18.20;54.60;;;;;;4990652;28;114946;-79
2023/09/24 10:14:11;;;;;;;7.13;4.82;;;18.20;54.40;;;;;;5008155;28;114318;-78
2023/09/24 10:16:38;;;;;;;6.00;4.28;;;18.10;54.80;;;;;;5008712;28;114260;-78
2023/09/24 10:19:08;;;;;;;6.95;5.07;;;18.10;54.90;;;;;;5007181;28;114885;-79
2023/09/24 10:21:43;;;;;;;7.30;4.95;;;18.20;54.80;;;;;;5007886;28;114387;-78
2023/09/24 10:24:14;;;;;;;7.78;5.18;;;18.20;54.80;;;;;;5025911;28;114575;-79
2023/09/24 10:27:04;;;;;;;5.55;4.03;;;18.10;54.80;;;;;;5025066;28;114325;-79
2023/09/24 10:29:51;;;;;;;7.53;5.47;;;18.00;55.30;;;;;;4992236;28;115065;-79
2023/09/24 10:32:18;;;;;;;5.78;4.57;;;18.00;54.90;;;;;;5031594;27;115187;-79
2023/09/24 10:34:52;;;;;;;5.95;4.22;;;17.80;55.50;;;;;;5033125;28;114413;-78
2023/09/24 10:37:23;;;;;;;7.15;4.28;;;17.90;55.50;;;;;;5014925;28;114295;-79
2023/09/24 10:42:27;;;;;;;4.93;3.75;;;18.10;55.60;;;;;;5032455;28;114622;-80
2023/09/24 10:45:07;;;;;;;8.55;4.93;;;18.20;55.20;;;;;;5015163;28;114456;-78
2023/09/24 10:47:43;;;;;;;7.63;4.28;;;18.30;53.60;;;;;;5014174;28;114437;-80
2023/09/24 10:50:17;;;;;;;;;;;18.30;53.90;;;;;;4997100;28;116291;-79
2023/09/24 10:53:00;;;;;;;6.23;4.20;;;18.20;54.40;;;;;;5031932;28;115123;-80
2023/09/24 10:55:30;;;;;;;7.00;4.00;;;18.20;54.20;;;;;;5032895;28;114355;-79
2023/09/24 10:57:59;;;;;;;6.53;4.13;;;18.20;54.00;;;;;;5032641;28;114178;-78
2023/09/24 11:00:27;;;;;;;5.95;4.13;;;18.20;54.30;;;;;;4997308;28;115053;-79
2023/09/24 11:03:01;;;;;;;5.38;4.18;;;18.20;53.90;;;;;;5013850;28;114687;-78
2023/09/24 11:05:29;;;;;;;;;;;18.20;54.00;;;;;;5015508;28;114288;-80
2023/09/24 11:07:56;;;;;;;6.20;3.72;;;18.00;54.20;;;;;;5034358;28;114565;-79
2023/09/24 11:10:26;;;;;;;6.60;4.60;;;17.90;54.80;;;;;;5013870;28;115407;-78
2023/09/24 11:13:02;;;;;;;6.32;4.32;;;17.90;54.40;;;;;;5031633;28;114647;-78
2023/09/24 11:15:31;;;;;;;5.88;3.95;;;17.70;54.50;;;;;;5014994;28;114175;-78
2023/09/24 11:17:58;;;;;;;5.90;4.60;;;17.60;54.90;;;;;;5033449;28;114170;-79
2023/09/24 11:20:28;;;;;;;8.50;5.47;;;17.40;54.70;;;;;;5014067;28;114971;-79
2023/09/24 11:22:59;;;;;;;7.72;4.75;;;17.30;54.70;;;;;;5013881;28;114641;-80
2023/09/24 11:25:26;;;;;;;7.57;4.90;;;17.30;55.30;;;;;;5015081;28;114299;-77
2023/09/24 11:27:55;;;;;;;6.82;4.18;;;17.20;55.10;;;;;;5031907;28;114337;-80
2023/09/24 11:30:23;;;;;;;7.13;4.40;;;17.20;56.00;;;;;;5013404;28;115998;-79
2023/09/24 11:32:51;;;;;;;6.75;4.80;;;17.30;55.80;;;;;;5013669;28;114553;-78
2023/09/24 11:35:20;;;;;;;6.65;3.75;;;17.40;55.00;;;;;;5032246;28;114326;-79
2023/09/24 11:37:53;;;;;;;6.18;4.57;;;17.40;55.50;;;;;;5031379;28;114347;-78
2023/09/24 11:40:27;;;;;;;5.67;3.73;;;17.30;55.30;;;;;;5030832;28;115000;-78
2023/09/24 11:42:54;;;;;;;;;;;17.30;55.90;;;;;;5029170;27;114699;-78
2023/09/24 11:45:42;;;;;;;7.68;4.28;;;17.20;55.50;;;;;;5028870;28;114340;-79
2023/09/24 11:48:11;;;;;;;5.68;3.67;;;17.20;56.10;;;;;;5028531;28;114385;-78
2023/09/24 11:50:39;;;;;;;6.82;3.58;;;17.10;56.50;;;;;;5009828;28;115429;-78
2023/09/24 11:53:06;;;;;;;5.72;3.80;;;17.20;56.40;;;;;;4993182;28;114737;-79
2023/09/24 11:55:34;;;;;;;7.25;4.20;;;17.40;56.00;;;;;;5028694;28;114100;-79
2023/09/24 11:58:02;;;;;;;6.90;3.78;;;17.50;55.60;;;;;;5028892;28;114151;-79
2023/09/24 12:00:29;;;;;;;5.95;3.20;;;17.60;55.70;;;;;;5027371;28;115406;-79
2023/09/24 12:02:56;;;;;;;7.15;3.78;;;17.70;55.40;;;;;;5009597;28;114695;-78
2023/09/24 12:05:23;;;;;;;6.43;3.25;;;17.80;54.80;;;;;;4993381;28;114444;-79
2023/09/24 12:08:01;;;;;;;6.30;3.63;;;18.00;54.50;;;;;;5011517;28;114319;-79
2023/09/24 12:10:28;;;;;;;5.20;3.40;;;18.00;54.20;;;;;;5008950;28;115071;-78
2023/09/24 12:13:01;;;;;;;5.88;3.50;;;18.00;54.20;;;;;;4992034;28;114837;-78
2023/09/24 12:15:31;;;;;;;5.15;2.92;;;18.00;54.30;;;;;;5028316;28;114248;-79
2023/09/24 12:17:59;;;;;;;4.53;3.17;;;18.00;54.60;;;;;;4993910;28;114331;-80
2023/09/24 12:20:26;;;;;;;5.93;3.30;;;18.20;54.40;;;;;;5026829;28;115463;-79
2023/09/24 12:22:54;;;;;;;6.55;4.00;;;18.20;53.90;;;;;;5027443;28;115777;-79
2023/09/24 12:25:21;;;;;;;6.60;3.42;;;18.30;53.70;;;;;;5028385;28;114148;-78
2023/09/24 12:27:48;;;;;;;5.43;3.53;;;18.20;53.80;;;;;;5009757;28;114245;-79
2023/09/24 12:30:15;;;;;;;5.93;3.80;;;18.20;53.70;;;;;;5027248;28;115450;-78
2023/09/24 12:32:42;;;;;;;7.75;4.25;;;18.20;54.00;;;;;;5010079;28;114972;-78
2023/09/24 12:35:12;;;;;;;6.70;3.78;;;18.10;54.10;;;;;;5027912;28;114266;-79
2023/09/24 12:37:40;;;;;;;5.72;3.30;;;18.00;54.30;;;;;;5010644;28;114300;-79
2023/09/24 12:40:09;;;;;;;4.35;2.92;;;18.00;54.40;;;;;;4991786;28;117380;-78
2023/09/24 12:42:37;;;;;;;4.95;3.20;;;18.00;54.30;;;;;;5008818;28;117547;-78
2023/09/24 12:45:05;;;;;;;5.13;3.13;;;18.00;53.90;;;;;;4993539;28;114251;-78
2023/09/24 12:47:33;;;;;;;7.45;3.65;;;18.10;53.90;;;;;;5027862;28;114433;-79